createdAt,value
2022-11-12T00:02:13.808Z,16.83
2022-11-12T00:04:33.245Z,15.60
2022-11-12T00:06:52.399Z,14.07
2022-11-12T00:09:11.933Z,11.25
2022-11-12T00:11:30.770Z,11.20
2022-11-12T00:13:49.999Z,12.85
2022-11-12T00:16:11.263Z,13.27
2022-11-12T00:18:30.526Z,14.13
2022-11-12T00:20:49.484Z,14.52
2022-11-12T00:23:09.160Z,13.63
2022-11-12T00:25:28.326Z,14.50
2022-11-12T00:27:47.635Z,16.35
2022-11-12T00:30:07.633Z,17.58
2022-11-12T00:32:28.725Z,19.15
2022-11-12T00:34:47.835Z,18.55
2022-11-12T00:37:07.614Z,18.25
2022-11-12T00:39:26.571Z,22.15
2022-11-12T00:41:45.888Z,19.60
2022-11-12T00:44:04.897Z,19.10
2022-11-12T00:46:24.726Z,16.58
2022-11-12T00:48:45.578Z,14.00
2022-11-12T00:51:07.095Z,12.93
2022-11-12T00:53:26.190Z,13.60
2022-11-12T00:56:08.464Z,15.35
2022-11-12T00:58:28.083Z,14.80
2022-11-12T01:00:47.312Z,15.35
2022-11-12T01:03:06.719Z,13.93
2022-11-12T01:05:26.238Z,11.38
2022-11-12T01:07:48.386Z,9.88
2022-11-12T01:10:10.399Z,8.32
2022-11-12T01:12:33.400Z,8.02
2022-11-12T01:14:52.513Z,8.98
2022-11-12T01:17:11.930Z,8.70
2022-11-12T01:19:30.938Z,8.68
2022-11-12T01:21:50.255Z,8.80
2022-11-12T01:24:10.185Z,9.77
2022-11-12T01:26:31.090Z,10.65
2022-11-12T01:28:51.942Z,9.40
2022-11-12T01:31:18.478Z,7.70
2022-11-12T01:33:37.690Z,7.55
2022-11-12T01:36:01.462Z,6.45
2022-11-12T01:38:20.470Z,5.05
2022-11-12T01:40:39.688Z,5.63
2022-11-12T01:42:58.845Z,5.97
2022-11-12T01:45:19.905Z,5.47
2022-11-12T01:47:39.321Z,6.28
2022-11-12T01:50:02.273Z,5.20
2022-11-12T01:52:24.351Z,4.90
2022-11-12T01:54:44.487Z,5.35
2022-11-12T01:57:04.674Z,5.53
2022-11-12T01:59:28.343Z,5.65
2022-11-12T02:01:49.552Z,6.28
2022-11-12T02:04:09.022Z,5.28
2022-11-12T02:06:29.106Z,5.63
2022-11-12T02:08:50.470Z,5.35
2022-11-12T02:11:16.866Z,5.72
2022-11-12T02:13:52.195Z,6.10
2022-11-12T02:16:13.607Z,6.13
2022-11-12T02:18:34.410Z,5.77
2022-11-12T02:20:58.742Z,5.45
2022-11-12T02:23:19.799Z,5.20
2022-11-12T02:25:39.323Z,5.20
2022-11-12T02:27:59.867Z,4.90
2022-11-12T02:30:19.027Z,3.78
2022-11-12T02:32:38.447Z,3.97
2022-11-12T02:34:57.661Z,3.78
2022-11-12T02:37:17.080Z,3.30
2022-11-12T02:39:38.142Z,3.47
2022-11-12T02:41:57.554Z,2.95
2022-11-12T02:44:16.356Z,3.47
2022-11-12T02:46:35.620Z,3.58
2022-11-12T02:48:54.528Z,3.63
2022-11-12T02:51:13.846Z,3.25
2022-11-12T02:53:33.519Z,4.10
2022-11-12T02:55:54.884Z,3.60
2022-11-12T02:58:13.994Z,3.50
2022-11-12T03:00:33.310Z,3.58
2022-11-12T03:03:00.050Z,3.45
2022-11-12T03:05:19.469Z,3.58
2022-11-12T03:07:38.431Z,4.22
2022-11-12T03:09:57.692Z,3.20
2022-11-12T03:12:18.700Z,3.80
2022-11-12T03:14:38.222Z,3.78
2022-11-12T03:16:57.563Z,3.10
2022-11-12T03:19:17.107Z,3.30
2022-11-12T03:21:36.740Z,5.32
2022-11-12T03:23:56.149Z,4.55
2022-11-12T03:26:15.526Z,3.25
2022-11-12T03:28:36.940Z,3.33
2022-11-12T03:30:59.989Z,2.67
2022-11-12T03:33:19.103Z,2.92
2022-11-12T03:35:38.822Z,2.42
2022-11-12T03:37:58.241Z,2.47
2022-11-12T03:40:17.916Z,2.40
2022-11-12T03:42:37.233Z,1.88
2022-11-12T03:44:59.264Z,2.40
2022-11-12T03:47:18.627Z,2.20
2022-11-12T03:49:38.253Z,2.72
2022-11-12T03:51:57.414Z,2.63
2022-11-12T03:54:17.042Z,2.17
2022-11-12T03:56:36.404Z,2.70
2022-11-12T03:58:55.774Z,2.40
2022-11-12T04:01:16.858Z,2.45
2022-11-12T04:03:36.659Z,2.25
2022-11-12T04:06:12.357Z,1.95
2022-11-12T04:08:40.735Z,2.05
2022-11-12T04:10:59.951Z,2.55
2022-11-12T04:13:31.966Z,2.28
2022-11-12T04:16:11.863Z,2.35
2022-11-12T04:18:49.317Z,1.88
2022-11-12T04:21:25.113Z,2.17
2022-11-12T04:23:44.637Z,1.88
2022-11-12T04:26:26.122Z,1.63
2022-11-12T04:29:05.805Z,1.80
2022-11-12T04:31:23.645Z,2.13
2022-11-12T04:33:44.645Z,1.67
2022-11-12T04:36:03.908Z,1.63
2022-11-12T04:38:23.756Z,1.42
2022-11-12T04:40:59.604Z,1.65
2022-11-12T04:43:37.602Z,1.52
2022-11-12T04:45:58.043Z,1.60
2022-11-12T04:48:17.301Z,1.58
2022-11-12T04:50:39.587Z,1.60
2022-11-12T04:55:17.555Z,1.90
2022-11-12T04:57:36.871Z,1.88
2022-11-12T04:59:56.448Z,1.80
2022-11-12T05:02:16.069Z,1.80
2022-11-12T05:04:35.645Z,1.65
2022-11-12T05:06:57.194Z,2.03
2022-11-12T05:09:16.730Z,1.73
2022-11-12T05:11:36.044Z,1.58
2022-11-12T05:13:55.628Z,1.60
2022-11-12T05:16:15.146Z,1.40
2022-11-12T05:18:34.721Z,1.85
2022-11-12T05:20:56.220Z,1.70
2022-11-12T05:23:17.384Z,1.92
2022-11-12T05:25:36.859Z,1.70
2022-11-12T05:27:56.222Z,1.77
2022-11-12T05:30:16.665Z,1.75
2022-11-12T05:32:35.933Z,1.60
2022-11-12T05:34:55.400Z,1.45
2022-11-12T05:37:18.452Z,1.80
2022-11-12T05:39:39.767Z,1.55
2022-11-12T05:42:12.480Z,1.67
2022-11-12T05:44:32.996Z,1.80
2022-11-12T05:46:53.120Z,4.60
2022-11-12T05:49:12.910Z,2.65
2022-11-12T05:51:32.277Z,1.70
2022-11-12T05:53:51.899Z,1.90
2022-11-12T05:56:13.730Z,1.90
2022-11-12T05:58:34.006Z,1.75
2022-11-12T06:00:53.326Z,1.90
2022-11-12T06:03:13.817Z,2.13
2022-11-12T06:05:32.940Z,1.98
2022-11-12T06:07:52.605Z,2.15
2022-11-12T06:10:17.482Z,2.00
2022-11-12T06:12:41.584Z,1.90
2022-11-12T06:15:00.791Z,2.20
2022-11-12T06:17:20.465Z,2.30
2022-11-12T06:19:39.637Z,2.20
2022-11-12T06:21:59.315Z,2.10
2022-11-12T06:24:18.520Z,2.17
2022-11-12T06:26:39.112Z,2.30
2022-11-12T06:29:00.886Z,2.13
2022-11-12T06:31:21.443Z,2.00
2022-11-12T06:33:40.977Z,2.25
2022-11-12T06:36:05.649Z,2.00
2022-11-12T06:38:25.240Z,2.25
2022-11-12T06:40:45.517Z,2.58
2022-11-12T06:43:04.665Z,2.33
2022-11-12T06:45:25.877Z,2.25
2022-11-12T06:47:44.989Z,2.42
2022-11-12T06:50:05.331Z,2.28
2022-11-12T06:52:24.499Z,2.17
2022-11-12T06:54:44.073Z,2.13
2022-11-12T06:57:03.285Z,2.20
2022-11-12T06:59:22.946Z,2.20
2022-11-12T07:01:43.936Z,2.30
2022-11-12T07:04:03.783Z,2.30
2022-11-12T07:06:23.462Z,2.40
2022-11-12T07:08:43.556Z,2.30
2022-11-12T07:11:03.629Z,2.00
2022-11-12T07:13:23.251Z,2.25
2022-11-12T07:15:42.581Z,2.17
2022-11-12T07:18:04.144Z,2.10
2022-11-12T07:20:23.356Z,2.17
2022-11-12T07:22:42.923Z,2.38
2022-11-12T07:25:02.094Z,2.08
2022-11-12T07:27:21.707Z,1.98
2022-11-12T07:29:48.941Z,2.05
2022-11-12T07:32:09.109Z,2.55
2022-11-12T07:34:30.205Z,2.65
2022-11-12T07:36:52.551Z,2.00
2022-11-12T07:39:11.761Z,2.20
2022-11-12T07:41:31.530Z,1.80
2022-11-12T07:43:52.551Z,1.80
2022-11-12T07:46:14.515Z,2.15
2022-11-12T07:48:34.905Z,2.20
2022-11-12T07:50:56.334Z,1.88
2022-11-12T07:53:15.648Z,2.00
2022-11-12T07:55:35.313Z,1.77
2022-11-12T07:57:54.641Z,2.13
2022-11-12T08:00:15.487Z,2.20
2022-11-12T08:02:34.857Z,1.98
2022-11-12T08:04:54.381Z,1.75
2022-11-12T08:07:15.481Z,2.05
2022-11-12T08:09:35.356Z,2.08
2022-11-12T08:11:54.572Z,1.80
2022-11-12T08:14:14.194Z,1.80
2022-11-12T08:16:33.564Z,1.90
2022-11-12T08:18:53.183Z,2.22
2022-11-12T08:21:15.785Z,1.70
2022-11-12T08:23:37.258Z,2.28
2022-11-12T08:25:56.563Z,2.25
2022-11-12T08:28:16.032Z,2.15
2022-11-12T08:30:35.560Z,1.77
2022-11-12T08:33:00.765Z,2.05
2022-11-12T08:35:20.377Z,1.80
2022-11-12T08:37:40.566Z,1.98
2022-11-12T08:40:01.582Z,2.20
2022-11-12T08:42:21.205Z,1.65
2022-11-12T08:44:40.358Z,1.90
2022-11-12T08:47:00.593Z,2.00
2022-11-12T08:49:19.662Z,2.38
2022-11-12T08:51:39.226Z,1.88
2022-11-12T08:53:58.491Z,2.38
2022-11-12T08:56:20.005Z,2.40
2022-11-12T08:58:39.075Z,2.20
2022-11-12T09:00:59.769Z,2.17
2022-11-12T09:03:21.800Z,2.10
2022-11-12T09:05:41.830Z,2.10
2022-11-12T09:08:05.828Z,2.75
2022-11-12T09:10:25.375Z,2.63
2022-11-12T09:12:46.435Z,3.15
2022-11-12T09:15:36.443Z,2.58
2022-11-12T09:17:45.648Z,2.28
2022-11-12T09:20:04.922Z,2.35
2022-11-12T09:22:24.176Z,2.47
2022-11-12T09:24:43.804Z,2.85
2022-11-12T09:27:02.923Z,2.63
2022-11-12T09:29:24.134Z,2.45
2022-11-12T09:31:43.283Z,2.50
2022-11-12T09:34:03.013Z,2.53
2022-11-12T09:36:22.237Z,2.42
2022-11-12T09:38:42.411Z,2.38
2022-11-12T09:41:25.792Z,2.25
2022-11-12T09:43:51.711Z,2.53
2022-11-12T09:46:28.818Z,2.60
2022-11-12T09:48:53.245Z,2.40
2022-11-12T09:51:20.936Z,2.70
2022-11-12T09:53:56.536Z,3.55
2022-11-12T09:56:17.897Z,4.40
2022-11-12T09:58:38.193Z,6.68
2022-11-12T10:01:00.367Z,10.73
2022-11-12T10:03:34.892Z,12.57
2022-11-12T10:06:01.225Z,9.35
2022-11-12T10:08:41.838Z,7.20
2022-11-12T10:11:15.234Z,5.45
2022-11-12T10:13:48.786Z,4.40
2022-11-12T10:16:40.414Z,4.47
2022-11-12T10:19:29.528Z,4.37
2022-11-12T10:21:56.422Z,4.45
2022-11-12T10:24:15.902Z,4.68
2022-11-12T10:26:36.438Z,4.93
2022-11-12T10:29:01.283Z,5.18
2022-11-12T10:31:22.346Z,5.25
2022-11-12T10:33:41.566Z,5.05
2022-11-12T10:36:21.722Z,5.07
2022-11-12T10:38:41.895Z,4.55
2022-11-12T10:41:01.113Z,4.55
2022-11-12T10:43:28.054Z,4.75
2022-11-12T10:45:48.040Z,4.70
2022-11-12T10:48:07.913Z,5.85
2022-11-12T10:50:32.718Z,5.80
2022-11-12T10:53:02.478Z,6.50
2022-11-12T10:55:24.964Z,6.07
2022-11-12T10:57:44.377Z,6.07
2022-11-12T11:00:20.919Z,5.22
2022-11-12T11:02:40.534Z,5.90
2022-11-12T11:05:00.142Z,5.85
2022-11-12T11:07:25.915Z,5.75
2022-11-12T11:09:59.056Z,5.50
2022-11-12T11:12:28.815Z,5.72
2022-11-12T11:14:47.931Z,5.80
2022-11-12T11:17:11.037Z,5.25
2022-11-12T11:19:36.030Z,5.30
2022-11-12T11:22:10.816Z,5.72
2022-11-12T11:24:57.313Z,5.85
2022-11-12T11:27:28.415Z,5.65
2022-11-12T11:30:11.227Z,5.85
2022-11-12T11:32:55.168Z,6.13
2022-11-12T11:35:23.849Z,5.72
2022-11-12T11:37:52.315Z,6.75
2022-11-12T11:40:27.372Z,6.63
2022-11-12T11:43:16.635Z,6.82
2022-11-12T11:45:48.236Z,6.38
2022-11-12T11:48:15.601Z,6.93
2022-11-12T11:50:38.797Z,8.50
2022-11-12T11:53:09.026Z,10.60
2022-11-12T11:55:48.868Z,16.35
2022-11-12T11:58:21.496Z,15.48
2022-11-12T12:00:50.595Z,16.73
2022-11-12T12:03:20.546Z,18.02
2022-11-12T12:05:46.786Z,17.73
2022-11-12T12:08:09.588Z,21.05
2022-11-12T12:11:01.206Z,26.17
2022-11-12T12:13:21.855Z,23.75
2022-11-12T12:15:55.817Z,20.85
2022-11-12T12:18:28.431Z,19.00
2022-11-12T12:20:56.369Z,19.33
2022-11-12T12:23:22.740Z,19.10
2022-11-12T12:25:44.515Z,19.95
2022-11-12T12:28:08.028Z,18.67
2022-11-12T12:30:29.701Z,17.48
2022-11-12T12:32:53.222Z,16.95
2022-11-12T12:35:23.230Z,16.75
2022-11-12T12:37:46.029Z,16.65
2022-11-12T12:40:15.174Z,17.33
2022-11-12T12:42:41.046Z,18.92
2022-11-12T12:45:05.892Z,20.08
2022-11-12T12:47:27.000Z,20.80
2022-11-12T12:49:49.698Z,20.88
2022-11-12T12:52:09.165Z,19.95
2022-11-12T12:54:59.251Z,19.95
2022-11-12T12:57:36.897Z,20.77
2022-11-12T13:00:29.775Z,21.08
2022-11-12T13:02:51.267Z,19.95
2022-11-12T13:05:25.331Z,19.05
2022-11-12T13:07:47.462Z,19.80
2022-11-12T13:13:07.053Z,19.20
2022-11-12T13:15:45.728Z,17.15
2022-11-12T13:18:16.914Z,17.17
2022-11-12T13:20:42.695Z,17.98
2022-11-12T13:23:01.952Z,17.02
2022-11-12T13:25:32.020Z,17.90
2022-11-12T13:28:24.547Z,17.63
2022-11-12T13:31:05.181Z,18.15
2022-11-12T13:33:32.329Z,17.98
2022-11-12T13:35:51.594Z,19.55
2022-11-12T13:38:17.621Z,20.85
2022-11-12T13:40:59.105Z,20.73
2022-11-12T13:43:32.355Z,22.92
2022-11-12T13:45:57.039Z,28.52
2022-11-12T13:48:20.919Z,44.05
2022-11-12T13:50:42.335Z,72.15
2022-11-12T13:53:03.076Z,44.28
2022-11-12T13:55:24.658Z,34.50
2022-11-12T13:57:44.117Z,35.90
2022-11-12T14:00:22.786Z,35.13
2022-11-12T14:02:47.229Z,30.33
2022-11-12T14:05:06.742Z,35.50
2022-11-12T14:07:43.824Z,32.42
2022-11-12T14:10:11.136Z,24.65
2022-11-12T14:12:45.139Z,21.77
2022-11-12T14:15:26.984Z,21.25
2022-11-12T14:17:51.418Z,23.40
2022-11-12T14:20:28.248Z,25.52
2022-11-12T14:22:49.880Z,23.02
2022-11-12T14:25:18.616Z,18.38
2022-11-12T14:27:39.261Z,16.90
2022-11-12T14:30:15.166Z,19.70
2022-11-12T14:32:40.000Z,17.42
2022-11-12T14:34:59.215Z,15.52
2022-11-12T14:37:43.055Z,16.13
2022-11-12T14:40:05.150Z,14.93
2022-11-12T14:42:24.968Z,15.05
2022-11-12T14:44:44.689Z,16.20
2022-11-12T14:47:05.543Z,17.17
2022-11-12T14:49:31.310Z,15.23
2022-11-12T14:51:53.603Z,16.48
2022-11-12T14:54:19.676Z,15.77
2022-11-12T14:56:45.644Z,20.63
2022-11-12T14:59:05.785Z,24.17
2022-11-12T15:02:08.792Z,36.80
2022-11-12T15:04:22.914Z,28.65
2022-11-12T15:06:42.626Z,33.97
2022-11-12T15:09:02.724Z,39.78
2022-11-12T15:11:27.978Z,45.58
2022-11-12T15:13:50.314Z,53.55
2022-11-12T15:16:11.268Z,69.65
2022-11-12T15:18:32.329Z,95.85
2022-11-12T15:21:13.353Z,121.32
2022-11-12T15:23:33.436Z,149.52
2022-11-12T15:26:02.069Z,172.23
2022-11-12T15:28:26.710Z,164.55
2022-11-12T15:31:04.261Z,171.48
2022-11-12T15:33:26.846Z,155.23
2022-11-12T15:35:47.189Z,141.88
2022-11-12T15:38:09.742Z,158.85
2022-11-12T15:40:28.942Z,183.00
2022-11-12T15:42:49.847Z,175.25
2022-11-12T15:45:16.533Z,155.15
2022-11-12T15:47:37.805Z,128.02
2022-11-12T15:49:57.995Z,111.40
2022-11-12T15:52:17.556Z,84.38
2022-11-12T15:54:40.874Z,74.55
2022-11-12T15:57:00.553Z,66.82
2022-11-12T15:59:21.460Z,64.75
2022-11-12T16:01:40.707Z,85.43
2022-11-12T16:04:02.435Z,70.65
2022-11-12T16:06:21.697Z,68.50
2022-11-12T16:08:41.218Z,58.15
2022-11-12T16:11:00.789Z,53.20
2022-11-12T16:13:24.143Z,45.03
2022-11-12T16:15:43.577Z,43.17
2022-11-12T16:18:03.704Z,38.42
2022-11-12T16:20:27.371Z,42.35
2022-11-12T16:22:47.101Z,45.72
2022-11-12T16:25:06.311Z,43.60
2022-11-12T16:27:25.783Z,39.33
2022-11-12T16:29:45.047Z,36.30
2022-11-12T16:32:04.464Z,32.25
2022-11-12T16:34:23.729Z,26.08
2022-11-12T16:36:45.604Z,26.45
2022-11-12T16:39:04.756Z,25.52
2022-11-12T16:41:24.289Z,38.42
2022-11-12T16:43:43.552Z,36.30
2022-11-12T16:46:02.920Z,37.35
2022-11-12T16:48:23.771Z,31.13
2022-11-12T16:50:43.447Z,28.77
2022-11-12T16:53:04.098Z,29.52
2022-11-12T16:55:23.924Z,32.15
2022-11-12T16:57:43.901Z,31.20
2022-11-12T17:00:03.120Z,30.33
2022-11-12T17:02:22.133Z,32.65
2022-11-12T17:04:41.493Z,31.33
2022-11-12T17:07:01.025Z,30.30
2022-11-12T17:09:21.866Z,24.80
2022-11-12T17:11:41.285Z,25.87
2022-11-12T17:14:00.294Z,24.10
2022-11-12T17:16:19.713Z,24.58
2022-11-12T17:18:39.027Z,22.35
2022-11-12T17:20:58.344Z,22.55
2022-11-12T17:23:17.866Z,21.13
2022-11-12T17:25:38.768Z,21.55
2022-11-12T17:27:57.778Z,20.70
2022-11-12T17:30:17.661Z,20.08
2022-11-12T17:32:36.921Z,17.75
2022-11-12T17:34:56.546Z,18.80
2022-11-12T17:37:16.322Z,30.65
2022-11-12T17:39:35.637Z,25.42
2022-11-12T17:41:56.954Z,23.75
2022-11-12T17:44:19.853Z,23.40
2022-11-12T17:46:38.810Z,28.35
2022-11-12T17:48:59.394Z,30.45
2022-11-12T17:51:22.506Z,26.63
2022-11-12T17:53:43.509Z,24.55
2022-11-12T17:56:04.773Z,25.63
2022-11-12T17:58:26.444Z,26.80
2022-11-12T18:00:46.392Z,25.83
2022-11-12T18:03:06.458Z,23.42
2022-11-12T18:05:25.934Z,25.23
2022-11-12T18:07:45.859Z,26.80
2022-11-12T18:10:05.382Z,24.55
2022-11-12T18:12:25.263Z,27.17
2022-11-12T18:14:46.523Z,25.15
2022-11-12T18:17:06.558Z,23.05
2022-11-12T18:19:25.978Z,20.65
2022-11-12T18:21:46.010Z,20.13
2022-11-12T18:24:05.172Z,18.15
2022-11-12T18:26:25.051Z,19.13
2022-11-12T18:28:44.526Z,17.38
2022-11-12T18:31:07.372Z,15.80
2022-11-12T18:33:26.590Z,15.18
2022-11-12T18:35:46.053Z,15.32
2022-11-12T18:38:05.062Z,16.38
2022-11-12T18:40:25.402Z,14.05
2022-11-12T18:42:44.616Z,13.40
2022-11-12T18:45:04.088Z,14.98
2022-11-12T18:47:25.042Z,13.10
2022-11-12T18:49:44.765Z,14.07
2022-11-12T18:52:04.287Z,13.70
2022-11-12T18:54:25.345Z,13.55
2022-11-12T18:56:44.506Z,11.65
2022-11-12T18:59:03.722Z,13.18
2022-11-12T19:01:24.685Z,12.25
2022-11-12T19:03:45.782Z,12.60
2022-11-12T19:06:05.512Z,11.25
2022-11-12T19:08:24.721Z,11.20
2022-11-12T19:10:43.628Z,11.00
2022-11-12T19:13:05.404Z,11.23
2022-11-12T19:15:26.720Z,11.82
2022-11-12T19:20:06.527Z,11.10
2022-11-12T19:22:25.895Z,12.38
2022-11-12T19:24:45.055Z,12.15
2022-11-12T19:27:04.013Z,13.50
2022-11-12T19:29:23.534Z,13.30
2022-11-12T19:31:42.796Z,11.77
2022-11-12T19:34:02.267Z,12.15
2022-11-12T19:36:24.915Z,12.75
2022-11-12T19:38:44.484Z,12.13
2022-11-12T19:41:07.476Z,14.40
2022-11-12T19:43:26.804Z,15.43
2022-11-12T19:45:45.763Z,15.48
2022-11-12T19:48:05.435Z,15.88
2022-11-12T19:50:24.967Z,14.43
2022-11-12T19:52:46.319Z,15.85
2022-11-12T19:55:05.226Z,17.20
2022-11-12T19:57:24.647Z,16.80
2022-11-12T19:59:43.603Z,18.52
2022-11-12T20:02:02.939Z,19.05
2022-11-12T20:04:24.395Z,19.25
2022-11-12T20:06:43.868Z,20.17
2022-11-12T20:09:04.963Z,25.13
2022-11-12T20:11:24.383Z,23.45
2022-11-12T20:13:43.496Z,22.45
2022-11-12T20:16:02.760Z,20.60
2022-11-12T20:18:21.868Z,19.92
2022-11-12T20:20:41.390Z,19.83
2022-11-12T20:23:00.553Z,20.38
2022-11-12T20:25:21.658Z,17.98
2022-11-12T20:27:40.974Z,16.25
2022-11-12T20:30:00.708Z,16.58
2022-11-12T20:32:20.173Z,17.00
2022-11-12T20:34:39.897Z,15.70
2022-11-12T20:36:59.316Z,15.90
2022-11-12T20:39:19.196Z,14.93
2022-11-12T20:41:40.302Z,15.85
2022-11-12T20:44:01.362Z,16.08
2022-11-12T20:46:20.583Z,15.70
2022-11-12T20:48:43.497Z,18.85
2022-11-12T20:51:23.079Z,23.25
2022-11-12T20:53:44.174Z,27.83
2022-11-12T20:56:09.896Z,32.08
2022-11-12T20:58:33.008Z,30.75
2022-11-12T21:00:53.589Z,35.35
2022-11-12T21:03:13.220Z,30.05
2022-11-12T21:05:32.384Z,28.55
2022-11-12T21:07:51.911Z,27.08
2022-11-12T21:10:12.037Z,32.25
2022-11-12T21:12:31.516Z,32.47
2022-11-12T21:14:52.457Z,29.38
2022-11-12T21:17:11.885Z,27.60
2022-11-12T21:19:31.100Z,18.45
2022-11-12T21:21:50.557Z,16.02
2022-11-12T21:24:10.548Z,19.35
2022-11-12T21:26:30.067Z,18.77
2022-11-12T21:28:50.015Z,21.25
2022-11-12T21:31:13.309Z,20.40
2022-11-12T21:33:32.526Z,23.08
2022-11-12T21:35:56.188Z,21.42
2022-11-12T21:38:15.403Z,22.35
2022-11-12T21:40:34.825Z,21.70
2022-11-12T21:42:54.137Z,21.95
2022-11-12T21:45:15.243Z,22.85
2022-11-12T21:47:36.347Z,20.88
2022-11-12T21:49:55.918Z,21.63
2022-11-12T21:52:15.593Z,21.00
2022-11-12T21:54:35.126Z,22.13
2022-11-12T21:56:54.389Z,21.77
2022-11-12T21:59:13.951Z,21.20
2022-11-12T22:01:35.270Z,21.75
2022-11-12T22:03:57.504Z,20.50
2022-11-12T22:06:17.082Z,19.77
2022-11-12T22:08:36.953Z,19.55
2022-11-12T22:10:56.420Z,19.55
2022-11-12T22:13:31.016Z,20.73
2022-11-12T22:15:51.695Z,20.05
2022-11-12T22:18:11.010Z,20.05
2022-11-12T22:20:32.324Z,21.75
2022-11-12T22:22:51.490Z,23.45
2022-11-12T22:25:11.527Z,21.02
2022-11-12T22:27:32.427Z,20.77
2022-11-12T22:29:52.964Z,18.90
2022-11-12T22:32:12.181Z,17.75
2022-11-12T22:34:31.801Z,18.02
2022-11-12T22:36:52.911Z,16.60
2022-11-12T22:39:12.685Z,15.48
2022-11-12T22:41:33.600Z,15.32
2022-11-12T22:43:53.774Z,14.77
2022-11-12T22:46:15.660Z,13.63
2022-11-12T22:48:35.336Z,13.90
2022-11-12T22:50:54.620Z,12.85
2022-11-12T22:53:15.852Z,13.88
2022-11-12T22:55:35.424Z,13.38
2022-11-12T22:57:54.895Z,12.57
2022-11-12T23:00:15.851Z,13.35
2022-11-12T23:02:37.264Z,13.73
2022-11-12T23:04:56.437Z,13.48
2022-11-12T23:07:15.908Z,14.02
2022-11-12T23:09:37.015Z,14.05
2022-11-12T23:11:56.681Z,14.60
2022-11-12T23:14:15.996Z,14.88
2022-11-12T23:16:36.399Z,15.75
2022-11-12T23:18:56.636Z,17.10
2022-11-12T23:21:17.785Z,16.48
2022-11-12T23:23:38.176Z,17.30
2022-11-12T23:26:04.303Z,17.42
2022-11-12T23:28:23.772Z,16.40
2022-11-12T23:30:43.037Z,16.50
2022-11-12T23:33:02.763Z,17.02
2022-11-12T23:35:21.872Z,17.55
2022-11-12T23:37:41.648Z,16.95
2022-11-12T23:40:00.914Z,18.60
2022-11-12T23:42:22.228Z,19.45
2022-11-12T23:44:41.652Z,22.60
2022-11-12T23:47:01.120Z,19.98
2022-11-12T23:49:20.125Z,21.30
2022-11-12T23:51:39.849Z,21.33
2022-11-12T23:53:59.116Z,24.27
2022-11-12T23:56:20.386Z,23.83
2022-11-12T23:58:42.305Z,23.45
